Terminal Aerodrome Forecast
Issued by NWS

Home | Current Version | Previous Version | Text Only | Print | Product List | Glossary On
Versions: 1 2 3 4 5 6 7 8 9 10 11 12 13 14 15 16 17 18 19 20 21
000
FTUS44 KEWX 251129
TAFSSF
TAF
KSSF 251129Z 2512/2612 19005KT P6SM BKN010
     FM251400 16004KT P6SM BKN015
     FM251600 15008KT P6SM SCT040 BKN250
     FM260100 11007KT P6SM SCT250
     FM260700 13006KT P6SM BKN012=

USA.gov is the U.S. government's official web portal to all federal, state and local government web resources and services.